Terminal Aerodrome Forecast
Issued by NWS Shreveport, LA

Home | Current Version | Previous Version | Text Only | Print | Product List | Glossary On
Versions: 1 2 3 4 5 6 7 8 9 10 11 12 13 14
000
FTUS44 KSHV 292300
TAFGGG
TAF
KGGG 292340Z 3000/3024 07005KT P6SM FEW060 BKN150
     FM300100 VRB03KT P6SM BKN150
     FM301200 13004KT P6SM BKN100
     FM301500 15008KT P6SM BKN100
     FM301800 15008KT P6SM FEW040 BKN100=

USA.gov is the U.S. government's official web portal to all federal, state and local government web resources and services.